createdAt,value
2019-05-28T00:00:34.374Z,15.67
2019-05-28T00:03:03.052Z,18.63
2019-05-28T00:05:31.577Z,15.17
2019-05-28T00:08:00.763Z,15.07
2019-05-28T00:10:29.200Z,14.67
2019-05-28T00:12:57.827Z,13.03
2019-05-28T00:15:26.275Z,11.17
2019-05-28T00:17:54.821Z,12.40
2019-05-28T00:20:23.416Z,13.13
2019-05-28T00:22:51.857Z,13.13
2019-05-28T00:25:20.359Z,18.80
2019-05-28T00:27:48.807Z,17.63
2019-05-28T00:30:20.568Z,15.17
2019-05-28T00:32:47.632Z,13.07
2019-05-28T00:35:16.988Z,14.93
2019-05-28T00:37:45.430Z,14.53
2019-05-28T00:40:15.090Z,19.03
2019-05-28T00:42:43.513Z,25.63
2019-05-28T00:45:12.434Z,15.67
2019-05-28T00:47:40.873Z,16.00
2019-05-28T00:50:10.636Z,18.27
2019-05-28T00:52:39.150Z,14.57
2019-05-28T00:55:08.390Z,15.00
2019-05-28T00:57:38.733Z,14.00
2019-05-28T01:00:07.894Z,29.40
2019-05-28T01:02:36.327Z,16.37
2019-05-28T01:05:06.224Z,16.93
2019-05-28T01:07:34.881Z,13.87
2019-05-28T01:10:05.240Z,14.93
2019-05-28T01:12:33.706Z,11.37
2019-05-28T01:15:02.147Z,12.30
2019-05-28T01:17:30.637Z,27.60
2019-05-28T01:19:59.042Z,22.10
2019-05-28T01:22:27.543Z,9.73
2019-05-28T01:24:55.969Z,15.10
2019-05-28T01:27:24.438Z,14.23
2019-05-28T01:29:52.869Z,10.30
2019-05-28T01:32:21.304Z,17.50
2019-05-28T01:34:50.495Z,14.63
2019-05-28T01:37:19.195Z,13.70
2019-05-28T01:39:47.621Z,13.30
2019-05-28T01:42:35.408Z,14.17
2019-05-28T01:45:04.587Z,16.33
2019-05-28T01:47:33.026Z,29.07
2019-05-28T01:50:01.443Z,22.67
2019-05-28T01:52:29.894Z,20.47
2019-05-28T01:54:58.336Z,17.60
2019-05-28T01:57:26.768Z,17.60
2019-05-28T01:59:55.243Z,14.83
2019-05-28T02:02:23.696Z,21.83
2019-05-28T02:04:52.229Z,10.50
2019-05-28T02:07:20.730Z,41.03
2019-05-28T02:09:49.156Z,28.67
2019-05-28T02:12:17.613Z,22.90
2019-05-28T02:14:46.039Z,15.03
2019-05-28T02:17:14.543Z,15.80
2019-05-28T02:19:43.009Z,13.13
2019-05-28T02:22:11.435Z,24.27
2019-05-28T02:24:39.875Z,19.27
2019-05-28T02:27:08.297Z,23.03
2019-05-28T02:29:56.084Z,15.67
2019-05-28T02:32:24.531Z,21.13
2019-05-28T02:34:52.962Z,15.27
2019-05-28T02:37:21.386Z,21.53
2019-05-28T02:39:49.807Z,18.23
2019-05-28T02:42:18.433Z,43.57
2019-05-28T02:44:46.853Z,27.63
2019-05-28T02:47:15.305Z,18.83
2019-05-28T02:49:43.745Z,22.03
2019-05-28T02:52:13.521Z,11.77
2019-05-28T02:54:42.023Z,14.60
2019-05-28T02:57:11.305Z,21.40
2019-05-28T02:59:40.860Z,11.70
2019-05-28T03:02:10.276Z,32.93
2019-05-28T03:04:39.846Z,31.47
2019-05-28T03:07:10.540Z,18.03
2019-05-28T03:09:40.866Z,13.73
2019-05-28T03:12:09.305Z,24.33
2019-05-28T03:14:37.807Z,19.73
2019-05-28T03:17:07.048Z,24.73
2019-05-28T03:19:37.939Z,19.87
2019-05-28T03:22:09.075Z,25.03
2019-05-28T03:24:39.027Z,25.30
2019-05-28T03:27:07.511Z,18.20
2019-05-28T03:29:35.943Z,10.87
2019-05-28T03:32:08.558Z,12.93
2019-05-28T03:34:34.776Z,21.00
2019-05-28T03:37:03.967Z,22.93
2019-05-28T03:39:34.352Z,24.13
2019-05-28T03:42:02.790Z,8.70
2019-05-28T03:44:31.202Z,18.37
2019-05-28T03:46:59.651Z,12.50
2019-05-28T03:49:28.107Z,11.77
2019-05-28T03:51:56.545Z,15.30
2019-05-28T03:54:24.961Z,14.20
2019-05-28T03:56:53.397Z,13.60
2019-05-28T03:59:21.813Z,14.50
2019-05-28T04:01:50.405Z,9.53
2019-05-28T04:04:18.795Z,7.73
2019-05-28T04:06:47.246Z,14.87
2019-05-28T04:09:15.671Z,8.50
2019-05-28T04:11:45.229Z,12.30
2019-05-28T04:14:14.175Z,21.40
2019-05-28T04:16:42.879Z,9.60
2019-05-28T04:19:11.317Z,20.40
2019-05-28T04:21:39.760Z,22.90
2019-05-28T04:24:08.168Z,18.77
2019-05-28T04:26:36.617Z,9.00
2019-05-28T04:29:05.313Z,16.93
2019-05-28T04:31:33.925Z,10.03
2019-05-28T04:34:02.347Z,11.60
2019-05-28T04:36:30.783Z,11.67
2019-05-28T04:38:59.215Z,17.53
2019-05-28T04:41:27.650Z,11.73
2019-05-28T04:43:56.101Z,13.63
2019-05-28T04:46:25.676Z,9.30
2019-05-28T04:48:54.114Z,13.13
2019-05-28T04:51:22.556Z,23.00
2019-05-28T04:53:50.985Z,10.33
2019-05-28T04:56:19.431Z,19.67
2019-05-28T04:58:48.191Z,10.63
2019-05-28T05:01:16.620Z,9.87
2019-05-28T05:03:45.138Z,12.13
2019-05-28T05:06:13.538Z,12.57
2019-05-28T05:08:41.986Z,15.73
2019-05-28T05:11:10.397Z,16.57
2019-05-28T05:13:38.924Z,11.27
2019-05-28T05:16:07.432Z,9.63
2019-05-28T05:18:35.910Z,8.43
2019-05-28T05:21:04.508Z,11.77
2019-05-28T05:23:32.976Z,20.27
2019-05-28T05:26:01.399Z,11.13
2019-05-28T05:28:29.863Z,12.23
2019-05-28T05:30:58.336Z,15.87
2019-05-28T05:33:26.792Z,12.83
2019-05-28T05:35:55.233Z,19.83
2019-05-28T05:38:23.846Z,14.50
2019-05-28T05:40:52.324Z,19.43
2019-05-28T05:43:20.852Z,12.43
2019-05-28T05:45:51.141Z,8.73
2019-05-28T05:48:23.005Z,16.83
2019-05-28T05:50:51.418Z,19.40
2019-05-28T05:53:19.882Z,22.80
2019-05-28T05:55:52.729Z,10.57
2019-05-28T05:58:26.814Z,18.17
2019-05-28T06:00:59.716Z,13.80
2019-05-28T06:03:40.279Z,13.80
2019-05-28T06:06:06.778Z,6.77
2019-05-28T06:08:39.235Z,9.87
2019-05-28T06:11:06.786Z,18.70
2019-05-28T06:13:36.448Z,15.40
2019-05-28T06:16:07.360Z,13.23
2019-05-28T06:18:37.556Z,16.73
2019-05-28T06:21:14.366Z,13.00
2019-05-28T06:23:36.389Z,15.87
2019-05-28T06:26:09.849Z,8.17
2019-05-28T06:28:42.221Z,26.83
2019-05-28T06:31:10.644Z,18.63
2019-05-28T06:33:55.094Z,15.30
2019-05-28T06:36:12.404Z,14.50
2019-05-28T06:38:45.413Z,24.53
2019-05-28T06:41:18.411Z,16.00
2019-05-28T06:43:51.482Z,12.83
2019-05-28T06:46:19.900Z,17.40
2019-05-28T06:48:48.370Z,13.37
2019-05-28T06:51:21.437Z,10.53
2019-05-28T06:53:53.977Z,15.97
2019-05-28T06:59:01.313Z,16.37
2019-05-28T07:01:30.308Z,35.77
2019-05-28T07:04:12.687Z,15.57
2019-05-28T07:06:32.324Z,23.63
2019-05-28T07:09:05.917Z,18.67
2019-05-28T07:11:38.264Z,17.43
2019-05-28T07:14:10.360Z,22.13
2019-05-28T07:16:52.576Z,24.30
2019-05-28T07:19:23.379Z,20.90
2019-05-28T07:21:42.212Z,21.33
2019-05-28T07:24:13.557Z,20.63
2019-05-28T07:26:47.474Z,14.17
2019-05-28T07:29:18.978Z,34.03
2019-05-28T07:31:47.699Z,32.00
2019-05-28T07:34:29.576Z,25.43
2019-05-28T07:36:49.099Z,11.83
2019-05-28T07:39:22.240Z,19.53
2019-05-28T07:41:54.884Z,21.37
2019-05-28T07:44:24.805Z,12.73
2019-05-28T07:46:53.238Z,17.60
2019-05-28T07:49:23.589Z,22.13
2019-05-28T07:51:56.141Z,9.90
2019-05-28T07:54:28.024Z,22.73
2019-05-28T07:56:56.828Z,16.37
2019-05-28T07:59:25.276Z,29.53
2019-05-28T08:01:59.442Z,20.23
2019-05-28T08:04:46.333Z,24.40
2019-05-28T08:07:07.624Z,14.93
2019-05-28T08:09:40.530Z,22.17
2019-05-28T08:12:13.800Z,15.93
2019-05-28T08:17:25.376Z,22.67
2019-05-28T08:19:56.084Z,18.00
2019-05-28T08:22:41.652Z,15.77
2019-05-28T08:25:23.594Z,12.47
2019-05-28T08:27:39.604Z,22.13
2019-05-28T08:30:12.330Z,14.83
2019-05-28T08:32:48.035Z,15.53
2019-05-28T08:35:19.530Z,15.07
2019-05-28T08:37:48.050Z,15.37
2019-05-28T08:40:16.842Z,16.50
2019-05-28T08:42:47.320Z,21.60
2019-05-28T08:45:22.928Z,11.53
2019-05-28T08:47:55.649Z,27.03
2019-05-28T08:50:34.419Z,10.47
2019-05-28T08:52:55.420Z,16.43
2019-05-28T08:55:25.288Z,10.67
2019-05-28T08:58:01.687Z,19.93
2019-05-28T09:00:38.348Z,20.70
2019-05-28T09:03:06.963Z,11.12
2019-05-28T09:05:39.118Z,10.60
2019-05-28T09:08:13.060Z,10.43
2019-05-28T09:10:49.183Z,15.73
2019-05-28T09:13:20.360Z,11.00
2019-05-28T09:15:48.846Z,17.23
2019-05-28T09:18:17.296Z,24.00
2019-05-28T09:20:49.118Z,18.23
2019-05-28T09:23:20.823Z,14.37
2019-05-28T09:25:48.554Z,18.47
2019-05-28T09:28:29.021Z,26.83
2019-05-28T09:30:49.785Z,14.83
2019-05-28T09:33:22.586Z,11.30
2019-05-28T09:36:07.523Z,17.50
2019-05-28T09:38:21.224Z,16.83
2019-05-28T09:40:51.558Z,15.70
2019-05-28T09:43:24.433Z,19.10
2019-05-28T09:45:57.439Z,20.23
2019-05-28T09:48:27.448Z,15.70
2019-05-28T09:50:55.835Z,14.93
2019-05-28T09:53:26.126Z,14.13
2019-05-28T09:56:00.042Z,10.30
2019-05-28T09:58:32.372Z,12.53
2019-05-28T10:01:02.645Z,8.93
2019-05-28T10:03:31.488Z,21.13
2019-05-28T10:06:15.596Z,24.13
2019-05-28T10:08:35.006Z,10.20
2019-05-28T10:11:09.615Z,11.43
2019-05-28T10:13:42.164Z,5.70
2019-05-28T10:16:11.581Z,5.17
2019-05-28T10:18:40.466Z,4.10
2019-05-28T10:21:18.422Z,2.53
2019-05-28T10:23:45.918Z,2.60
2019-05-28T10:26:19.112Z,9.77
2019-05-28T10:28:53.670Z,7.77
2019-05-28T10:31:27.558Z,6.43
2019-05-28T10:34:01.697Z,3.70
2019-05-28T10:36:37.247Z,6.73
2019-05-28T10:39:09.409Z,10.50
2019-05-28T10:41:41.763Z,12.63
2019-05-28T10:44:15.338Z,11.07
2019-05-28T10:46:44.343Z,11.57
2019-05-28T10:49:13.051Z,9.80
2019-05-28T10:51:44.380Z,8.80
2019-05-28T10:54:17.354Z,8.00
2019-05-28T10:56:47.658Z,9.03
2019-05-28T10:59:16.535Z,12.53
2019-05-28T11:01:45.686Z,9.93
2019-05-28T11:04:17.979Z,7.50
2019-05-28T11:06:52.367Z,23.23
2019-05-28T11:09:25.689Z,9.60
2019-05-28T11:11:54.872Z,12.87
2019-05-28T11:14:23.612Z,8.30
2019-05-28T11:16:53.732Z,2.50
2019-05-28T11:19:28.059Z,3.83
2019-05-28T11:22:01.232Z,11.33
2019-05-28T11:24:31.288Z,4.07
2019-05-28T11:27:00.426Z,1.83
2019-05-28T11:29:29.376Z,2.93
2019-05-28T11:32:01.964Z,2.03
2019-05-28T11:34:35.165Z,3.93
2019-05-28T11:37:09.393Z,4.10
2019-05-28T11:39:33.841Z,2.03
2019-05-28T11:42:05.548Z,2.97
2019-05-28T11:44:39.993Z,2.33
2019-05-28T11:47:11.181Z,1.60
2019-05-28T11:49:44.764Z,4.80
2019-05-28T11:52:18.365Z,8.97
2019-05-28T11:54:46.570Z,2.20
2019-05-28T11:57:14.996Z,4.00
2019-05-28T11:59:47.495Z,1.67
2019-05-28T12:02:20.266Z,6.40
2019-05-28T12:04:55.909Z,1.27
2019-05-28T12:07:29.802Z,1.70
2019-05-28T12:10:01.775Z,1.30
2019-05-28T12:12:36.062Z,5.67
2019-05-28T12:15:00.488Z,3.00
2019-05-28T12:17:41.699Z,8.50
2019-05-28T12:20:06.368Z,9.47
2019-05-28T12:22:39.174Z,3.50
2019-05-28T12:25:13.476Z,2.80
2019-05-28T12:27:46.618Z,5.20
2019-05-28T12:30:20.976Z,3.23
2019-05-28T12:32:54.912Z,1.50
2019-05-28T12:35:29.740Z,1.90
2019-05-28T12:38:01.202Z,7.00
2019-05-28T12:40:46.288Z,3.50
2019-05-28T12:42:59.811Z,1.93
2019-05-28T12:45:35.395Z,5.80
2019-05-28T12:48:11.292Z,1.80
2019-05-28T12:50:38.400Z,2.60
2019-05-28T12:53:11.372Z,14.13
2019-05-28T12:55:44.316Z,5.37
2019-05-28T12:58:14.844Z,2.40
2019-05-28T13:00:45.041Z,13.37
2019-05-28T13:03:13.590Z,2.83
2019-05-28T13:05:45.926Z,4.50
2019-05-28T13:08:14.750Z,5.20
2019-05-28T13:10:43.589Z,2.73
2019-05-28T13:13:14.185Z,6.20
2019-05-28T13:15:46.970Z,2.83
2019-05-28T13:18:19.926Z,9.77
2019-05-28T13:20:48.059Z,4.03
2019-05-28T13:23:15.915Z,4.90
2019-05-28T13:25:50.112Z,2.10
2019-05-28T13:28:24.009Z,2.90
2019-05-28T13:30:58.356Z,2.40
2019-05-28T13:33:31.900Z,2.10
2019-05-28T13:36:04.982Z,2.17
2019-05-28T13:38:37.249Z,2.67
2019-05-28T13:41:06.055Z,2.40
2019-05-28T13:43:34.594Z,4.40
2019-05-28T13:46:07.568Z,2.67
2019-05-28T13:48:38.881Z,3.50
2019-05-28T13:51:07.318Z,7.20
2019-05-28T13:53:35.852Z,4.20
2019-05-28T13:56:07.430Z,3.33
2019-05-28T13:58:41.918Z,5.17
2019-05-28T14:01:14.539Z,5.43
2019-05-28T14:03:48.191Z,9.90
2019-05-28T14:06:16.872Z,9.83
2019-05-28T14:08:47.595Z,4.23
2019-05-28T14:11:18.802Z,5.60
2019-05-28T14:13:51.190Z,4.27
2019-05-28T14:16:24.313Z,4.80
2019-05-28T14:18:59.390Z,7.13
2019-05-28T14:21:33.207Z,4.23
2019-05-28T14:24:03.829Z,4.40
2019-05-28T14:26:32.683Z,4.23
2019-05-28T14:29:01.186Z,4.43
2019-05-28T14:31:34.116Z,8.90
2019-05-28T14:34:08.567Z,5.33
2019-05-28T14:36:40.856Z,9.17
2019-05-28T14:39:19.650Z,5.00
2019-05-28T14:41:39.777Z,4.60
2019-05-28T14:44:11.057Z,3.97
2019-05-28T14:46:42.334Z,3.70
2019-05-28T14:49:18.129Z,4.53
2019-05-28T14:51:52.624Z,3.43
2019-05-28T14:54:24.807Z,3.00
2019-05-28T14:56:53.372Z,3.97
2019-05-28T14:59:21.854Z,5.27
2019-05-28T15:01:50.303Z,16.50
2019-05-28T15:04:18.751Z,9.83
2019-05-28T15:06:48.939Z,7.63
2019-05-28T15:09:21.887Z,7.90
2019-05-28T15:11:54.671Z,5.30
2019-05-28T15:14:23.128Z,5.90
2019-05-28T15:16:51.587Z,9.83
2019-05-28T15:19:24.424Z,7.37
2019-05-28T15:21:55.843Z,7.60
2019-05-28T15:24:24.457Z,19.87
2019-05-28T15:26:52.870Z,13.20
2019-05-28T15:29:21.316Z,20.03
2019-05-28T15:31:49.759Z,14.43
2019-05-28T15:34:18.218Z,14.33
2019-05-28T15:36:46.636Z,10.63
2019-05-28T15:39:15.046Z,6.20
2019-05-28T15:41:43.582Z,5.00
2019-05-28T15:44:11.991Z,6.87
2019-05-28T15:46:40.428Z,7.70
2019-05-28T15:49:08.969Z,8.73
2019-05-28T15:51:37.397Z,11.80
2019-05-28T15:54:05.865Z,17.50
2019-05-28T15:56:34.278Z,14.97
2019-05-28T15:59:02.712Z,14.00
2019-05-28T16:01:31.363Z,33.13
2019-05-28T16:03:59.971Z,17.50
2019-05-28T16:06:28.397Z,18.60
2019-05-28T16:08:56.822Z,23.40
2019-05-28T16:11:25.286Z,10.90
2019-05-28T16:13:53.745Z,5.03
2019-05-28T16:16:22.248Z,9.53
2019-05-28T16:18:50.655Z,6.07
2019-05-28T16:21:19.093Z,5.77
2019-05-28T16:23:47.489Z,4.43
2019-05-28T16:26:15.955Z,4.63
2019-05-28T16:28:44.365Z,4.63
2019-05-28T16:31:14.458Z,5.20
2019-05-28T16:33:42.872Z,4.13
2019-05-28T16:36:11.334Z,4.20
2019-05-28T16:38:39.788Z,5.53
2019-05-28T16:41:08.246Z,5.60
2019-05-28T16:43:36.665Z,4.90
2019-05-28T16:46:05.469Z,5.00
2019-05-28T16:48:33.899Z,9.70
2019-05-28T16:51:02.389Z,5.30
2019-05-28T16:53:30.845Z,4.97
2019-05-28T16:55:59.306Z,4.63
2019-05-28T16:58:27.725Z,4.20
2019-05-28T17:01:00.927Z,4.30
2019-05-28T17:03:26.485Z,4.23
2019-05-28T17:05:54.981Z,4.40
2019-05-28T17:08:23.445Z,4.77
2019-05-28T17:10:51.885Z,3.57
2019-05-28T17:13:20.545Z,4.83
2019-05-28T17:15:48.998Z,3.90
2019-05-28T17:18:17.424Z,4.23
2019-05-28T17:20:45.920Z,4.60
2019-05-28T17:23:14.400Z,4.40
2019-05-28T17:25:43.066Z,5.93
2019-05-28T17:28:11.482Z,4.37
2019-05-28T17:30:39.913Z,4.83
2019-05-28T17:33:08.331Z,5.13
2019-05-28T17:35:36.769Z,5.03
2019-05-28T17:38:05.203Z,14.93
2019-05-28T17:40:47.477Z,4.67
2019-05-28T17:43:03.920Z,6.80
2019-05-28T17:45:32.402Z,5.37
2019-05-28T17:48:00.898Z,4.27
2019-05-28T17:50:29.325Z,5.13
2019-05-28T17:52:57.769Z,5.37
2019-05-28T17:55:26.178Z,5.10
2019-05-28T17:57:54.613Z,6.00
2019-05-28T18:00:23.055Z,5.77
2019-05-28T18:02:51.482Z,4.73
2019-05-28T18:05:19.940Z,7.50
2019-05-28T18:07:48.440Z,6.20
2019-05-28T18:10:17.534Z,6.13
2019-05-28T18:12:45.970Z,5.93
2019-05-28T18:15:14.648Z,5.73
2019-05-28T18:17:43.082Z,6.47
2019-05-28T18:20:14.943Z,7.40
2019-05-28T18:22:42.233Z,11.13
2019-05-28T18:25:10.810Z,8.40
2019-05-28T18:27:39.246Z,11.00
2019-05-28T18:30:09.058Z,9.10
2019-05-28T18:32:37.783Z,10.13
2019-05-28T18:35:07.400Z,13.93
2019-05-28T18:37:35.896Z,15.63
2019-05-28T18:40:10.292Z,13.00
2019-05-28T18:42:38.757Z,18.63
2019-05-28T18:45:08.562Z,14.37
2019-05-28T18:47:37.723Z,13.30
2019-05-28T18:50:07.311Z,12.23
2019-05-28T18:52:35.747Z,11.80
2019-05-28T18:55:06.298Z,10.93
2019-05-28T18:57:34.715Z,14.40
2019-05-28T19:00:04.527Z,11.47
2019-05-28T19:02:32.965Z,10.70
2019-05-28T19:05:01.394Z,9.47
2019-05-28T19:07:29.853Z,9.17
2019-05-28T19:09:58.328Z,12.03
2019-05-28T19:12:26.801Z,10.50
2019-05-28T19:14:55.249Z,8.50
2019-05-28T19:17:23.718Z,7.43
2019-05-28T19:19:52.201Z,7.33
2019-05-28T19:22:20.657Z,9.37
2019-05-28T19:24:49.075Z,6.73
2019-05-28T19:27:17.585Z,7.20
2019-05-28T19:29:50.378Z,7.50
2019-05-28T19:32:16.189Z,11.70
2019-05-28T19:34:48.479Z,8.53
2019-05-28T19:37:15.305Z,9.47
2019-05-28T19:39:44.066Z,14.10
2019-05-28T19:42:12.521Z,10.57
2019-05-28T19:44:40.933Z,15.57
2019-05-28T19:47:10.254Z,13.43
2019-05-28T19:49:38.746Z,11.20
2019-05-28T19:52:07.179Z,9.70
2019-05-28T19:54:35.650Z,12.00
2019-05-28T19:57:04.093Z,12.53
2019-05-28T19:59:34.061Z,12.70
2019-05-28T20:02:02.666Z,13.97
2019-05-28T20:04:31.236Z,11.87
2019-05-28T20:06:59.778Z,12.43
2019-05-28T20:09:28.223Z,11.80
2019-05-28T20:12:11.640Z,10.63
2019-05-28T20:14:27.000Z,11.00
2019-05-28T20:16:55.488Z,10.07
2019-05-28T20:19:23.991Z,13.87
2019-05-28T20:21:55.060Z,20.43
2019-05-28T20:24:22.638Z,9.87
2019-05-28T20:26:51.862Z,13.57
2019-05-28T20:29:21.793Z,11.43
2019-05-28T20:31:50.579Z,9.73
2019-05-28T20:34:19.253Z,10.13
2019-05-28T20:36:47.684Z,11.17
2019-05-28T20:39:16.219Z,13.33
2019-05-28T20:41:44.775Z,11.30
2019-05-28T20:44:13.209Z,16.30
2019-05-28T20:46:41.678Z,9.10
2019-05-28T20:49:12.874Z,11.07
2019-05-28T20:51:41.271Z,9.87
2019-05-28T20:54:09.757Z,17.30
2019-05-28T20:56:38.179Z,17.80
2019-05-28T20:59:06.621Z,14.97
2019-05-28T21:01:35.320Z,11.63
2019-05-28T21:04:03.775Z,11.30
2019-05-28T21:06:32.194Z,8.93
2019-05-28T21:09:04.825Z,16.70
2019-05-28T21:11:33.277Z,11.10
2019-05-28T21:14:01.703Z,11.87
2019-05-28T21:16:30.340Z,13.83
2019-05-28T21:18:59.395Z,11.23
2019-05-28T21:21:27.841Z,17.77
2019-05-28T21:23:56.253Z,14.97
2019-05-28T21:26:24.769Z,13.80
2019-05-28T21:28:54.195Z,10.13
2019-05-28T21:31:22.830Z,12.00
2019-05-28T21:33:51.282Z,11.00
2019-05-28T21:36:19.717Z,10.30
2019-05-28T21:38:48.177Z,11.23
2019-05-28T21:41:16.617Z,10.20
2019-05-28T21:43:45.069Z,10.70
2019-05-28T21:46:13.505Z,15.07
2019-05-28T21:48:41.935Z,14.17
2019-05-28T21:51:10.481Z,19.10
2019-05-28T21:53:38.969Z,13.60
2019-05-28T21:56:07.413Z,15.20
2019-05-28T21:58:35.853Z,14.87
2019-05-28T22:01:07.448Z,16.00
2019-05-28T22:03:35.908Z,12.47
2019-05-28T22:06:04.516Z,9.70
2019-05-28T22:08:33.736Z,11.43
2019-05-28T22:11:02.234Z,22.13
2019-05-28T22:13:30.686Z,12.73
2019-05-28T22:16:00.061Z,15.70
2019-05-28T22:18:28.639Z,11.10
2019-05-28T22:20:58.121Z,8.80
2019-05-28T22:23:26.710Z,21.23
2019-05-28T22:25:56.348Z,13.90
2019-05-28T22:28:25.011Z,9.87
2019-05-28T22:30:53.588Z,12.93
2019-05-28T22:33:22.041Z,15.13
2019-05-28T22:35:50.469Z,16.33
2019-05-28T22:38:18.916Z,13.80
2019-05-28T22:40:47.364Z,11.03
2019-05-28T22:43:28.894Z,18.77
2019-05-28T22:45:45.948Z,26.87
2019-05-28T22:48:17.229Z,13.17
2019-05-28T22:50:45.236Z,10.47
2019-05-28T22:53:13.945Z,15.63
2019-05-28T22:55:42.436Z,15.00
2019-05-28T22:58:10.889Z,12.00
2019-05-28T23:00:39.375Z,13.17
2019-05-28T23:03:09.075Z,11.83
2019-05-28T23:05:37.708Z,12.70
2019-05-28T23:08:06.132Z,15.10
2019-05-28T23:10:34.570Z,12.23
2019-05-28T23:13:03.076Z,10.23
2019-05-28T23:15:31.514Z,11.57
2019-05-28T23:18:00.354Z,10.27
2019-05-28T23:20:29.016Z,25.70
2019-05-28T23:22:57.456Z,11.67
2019-05-28T23:25:25.899Z,12.30
2019-05-28T23:27:54.315Z,10.20
2019-05-28T23:30:25.228Z,11.70
2019-05-28T23:32:53.096Z,9.50
2019-05-28T23:35:21.548Z,17.90
2019-05-28T23:37:49.976Z,11.37
2019-05-28T23:40:18.554Z,8.40
2019-05-28T23:42:46.967Z,9.27
2019-05-28T23:45:17.719Z,16.07
2019-05-28T23:47:46.165Z,11.40
2019-05-28T23:50:18.068Z,13.40
2019-05-28T23:52:45.190Z,12.07
2019-05-28T23:55:13.955Z,11.03
2019-05-28T23:57:42.656Z,10.90
